createdAt,value
2023-02-02T00:00:00.940Z,0.80
2023-02-02T00:04:04.616Z,1.30
2023-02-02T00:08:08.931Z,2.30
2023-02-02T00:12:12.566Z,1.83
2023-02-02T00:16:40.693Z,1.27
2023-02-02T00:20:45.084Z,1.02
2023-02-02T00:24:50.147Z,1.50
2023-02-02T00:28:53.167Z,1.70
2023-02-02T00:32:56.270Z,2.05
2023-02-02T00:36:59.511Z,1.33
2023-02-02T00:41:04.000Z,1.00
2023-02-02T00:45:19.880Z,2.03
2023-02-02T00:49:23.277Z,1.00
2023-02-02T00:53:26.456Z,1.20
2023-02-02T00:57:31.483Z,0.98
2023-02-02T01:01:34.479Z,1.48
2023-02-02T01:05:38.558Z,1.08
2023-02-02T01:09:41.474Z,1.80
2023-02-02T01:13:46.093Z,1.05
2023-02-02T01:17:49.384Z,1.23
2023-02-02T01:21:52.782Z,1.30
2023-02-02T01:25:57.087Z,1.50
2023-02-02T01:30:01.562Z,1.17
2023-02-02T01:34:05.069Z,1.17
2023-02-02T01:38:08.153Z,0.98
2023-02-02T01:42:14.668Z,1.02
2023-02-02T01:46:20.825Z,1.05
2023-02-02T01:50:27.431Z,1.00
2023-02-02T01:54:36.648Z,1.60
2023-02-02T01:58:43.510Z,1.17
2023-02-02T02:02:50.447Z,1.30
2023-02-02T02:06:53.995Z,1.33
2023-02-02T02:10:57.363Z,0.80
2023-02-02T02:15:17.697Z,1.42
2023-02-02T02:20:20.848Z,1.20
2023-02-02T02:25:23.217Z,1.35
2023-02-02T02:29:47.629Z,1.03
2023-02-02T02:34:01.153Z,1.73
2023-02-02T02:38:13.856Z,1.00
2023-02-02T02:42:21.419Z,1.80
2023-02-02T02:46:25.467Z,1.40
2023-02-02T02:50:30.160Z,1.15
2023-02-02T02:54:37.948Z,0.73
2023-02-02T02:58:51.731Z,0.57
2023-02-02T03:03:04.797Z,0.30
2023-02-02T03:07:16.664Z,0.30
2023-02-02T03:11:20.116Z,0.57
2023-02-02T03:15:23.791Z,0.30
2023-02-02T03:19:27.283Z,0.40
2023-02-02T03:23:32.208Z,0.30
2023-02-02T03:27:35.140Z,0.30
2023-02-02T03:31:38.884Z,0.30
2023-02-02T03:35:41.872Z,0.20
2023-02-02T03:39:46.510Z,0.35
2023-02-02T03:43:49.807Z,0.20
2023-02-02T03:47:53.005Z,0.20
2023-02-02T03:51:56.140Z,0.20
2023-02-02T03:56:00.682Z,0.40
2023-02-02T04:00:03.765Z,0.30
2023-02-02T04:04:07.216Z,0.30
2023-02-02T04:08:10.481Z,0.30
2023-02-02T04:12:39.563Z,0.30
2023-02-02T04:16:42.465Z,0.20
2023-02-02T04:20:45.387Z,0.20
2023-02-02T04:24:48.537Z,0.20
2023-02-02T04:28:53.193Z,0.35
2023-02-02T04:32:56.700Z,0.30
2023-02-02T04:37:00.199Z,0.30
2023-02-02T04:41:07.772Z,0.30
2023-02-02T04:45:13.343Z,0.28
2023-02-02T04:49:16.881Z,0.60
2023-02-02T04:53:20.138Z,0.60
2023-02-02T04:57:23.100Z,0.30
2023-02-02T05:01:27.556Z,0.50
2023-02-02T05:05:30.985Z,0.40
2023-02-02T05:09:33.950Z,0.35
2023-02-02T05:13:37.581Z,0.35
2023-02-02T05:17:42.178Z,0.20
2023-02-02T05:21:46.311Z,0.30
2023-02-02T05:25:53.934Z,0.40
2023-02-02T05:30:00.270Z,0.20
2023-02-02T05:34:07.123Z,0.30
2023-02-02T05:38:10.452Z,0.30
2023-02-02T05:42:14.062Z,0.20
2023-02-02T05:46:17.606Z,0.30
2023-02-02T05:50:22.104Z,0.30
2023-02-02T05:54:25.815Z,0.40
2023-02-02T05:58:29.432Z,0.45
2023-02-02T06:02:32.377Z,0.20
2023-02-02T06:06:38.454Z,0.20
2023-02-02T06:10:42.065Z,0.40
2023-02-02T06:14:45.160Z,0.60
2023-02-02T06:18:49.239Z,0.30
2023-02-02T06:22:53.536Z,0.30
2023-02-02T06:26:56.771Z,0.30
2023-02-02T06:31:06.125Z,0.20
2023-02-02T06:35:10.302Z,0.38
2023-02-02T06:39:14.863Z,0.32
2023-02-02T06:43:17.923Z,0.30
2023-02-02T06:47:21.213Z,0.35
2023-02-02T06:51:24.420Z,0.40
2023-02-02T06:55:28.966Z,0.40
2023-02-02T06:59:32.369Z,0.30
2023-02-02T07:03:36.179Z,0.50
2023-02-02T07:07:39.375Z,0.47
2023-02-02T07:11:44.763Z,0.40
2023-02-02T07:15:49.027Z,0.40
2023-02-02T07:19:52.333Z,0.68
2023-02-02T07:23:55.455Z,0.28
2023-02-02T07:28:00.010Z,0.50
2023-02-02T07:32:03.012Z,0.50
2023-02-02T07:36:06.559Z,0.40
2023-02-02T07:40:11.487Z,0.40
2023-02-02T07:44:16.871Z,0.40
2023-02-02T07:48:20.653Z,0.40
2023-02-02T07:52:24.090Z,0.40
2023-02-02T07:56:29.008Z,0.40
2023-02-02T08:00:33.978Z,0.43
2023-02-02T08:04:37.267Z,0.50
2023-02-02T08:08:40.547Z,0.43
2023-02-02T08:12:43.738Z,0.45
2023-02-02T08:16:48.431Z,0.30
2023-02-02T08:20:52.757Z,0.77
2023-02-02T08:24:56.086Z,0.47
2023-02-02T08:29:01.650Z,0.45
2023-02-02T08:33:06.166Z,0.20
2023-02-02T08:37:09.737Z,0.55
2023-02-02T08:41:14.541Z,0.35
2023-02-02T08:46:02.397Z,0.30
2023-02-02T08:49:45.393Z,0.25
2023-02-02T08:53:49.360Z,0.40
2023-02-02T08:57:52.706Z,0.30
2023-02-02T09:01:56.068Z,0.40
2023-02-02T09:06:05.995Z,0.63
2023-02-02T09:10:09.683Z,0.32
2023-02-02T09:14:14.667Z,0.47
2023-02-02T09:18:18.248Z,0.50
2023-02-02T09:22:22.973Z,0.50
2023-02-02T09:26:28.617Z,0.30
2023-02-02T09:30:31.635Z,0.40
2023-02-02T09:34:34.749Z,0.50
2023-02-02T09:38:40.290Z,0.50
2023-02-02T09:42:56.952Z,0.30
2023-02-02T09:47:11.091Z,0.30
2023-02-02T09:51:20.085Z,0.55
2023-02-02T09:55:31.978Z,0.30
2023-02-02T09:59:38.436Z,0.23
2023-02-02T10:03:46.856Z,0.40
2023-02-02T10:07:54.290Z,0.30
2023-02-02T10:12:05.517Z,0.30
2023-02-02T10:16:18.521Z,0.40
2023-02-02T10:25:56.458Z,0.20
2023-02-02T10:30:02.540Z,0.38
2023-02-02T10:34:14.972Z,0.20
2023-02-02T10:38:26.156Z,0.30
2023-02-02T10:42:42.419Z,0.30
2023-02-02T10:46:50.237Z,0.68
2023-02-02T10:50:56.853Z,0.40
2023-02-02T10:55:04.763Z,0.35
2023-02-02T10:59:13.400Z,0.50
2023-02-02T11:03:20.312Z,0.30
2023-02-02T11:07:23.687Z,0.30
2023-02-02T11:11:29.607Z,0.55
2023-02-02T11:15:33.341Z,0.30
2023-02-02T11:19:39.651Z,0.60
2023-02-02T11:23:42.987Z,0.30
2023-02-02T11:27:47.167Z,0.32
2023-02-02T11:31:50.586Z,0.20
2023-02-02T11:35:57.202Z,0.20
2023-02-02T11:40:24.917Z,0.20
2023-02-02T11:44:30.445Z,0.30
2023-02-02T11:48:36.251Z,0.22
2023-02-02T11:52:40.805Z,0.43
2023-02-02T11:56:44.805Z,0.30
2023-02-02T12:00:49.685Z,0.52
2023-02-02T12:04:55.381Z,0.40
2023-02-02T12:09:02.047Z,0.45
2023-02-02T12:13:11.235Z,0.38
2023-02-02T12:17:30.420Z,0.50
2023-02-02T12:21:42.113Z,0.30
2023-02-02T12:26:11.912Z,0.35
2023-02-02T12:30:35.212Z,0.40
2023-02-02T12:34:49.134Z,0.52
2023-02-02T12:39:21.457Z,0.30
2023-02-02T12:43:34.270Z,0.43
2023-02-02T12:52:18.133Z,0.68
2023-02-02T12:56:29.434Z,0.70
2023-02-02T13:01:17.380Z,1.13
2023-02-02T13:05:52.635Z,0.60
2023-02-02T13:10:07.778Z,0.85
2023-02-02T13:14:14.259Z,0.68
2023-02-02T13:18:23.013Z,0.85
2023-02-02T13:22:31.120Z,1.08
2023-02-02T13:26:40.630Z,0.88
2023-02-02T13:30:47.098Z,0.68
2023-02-02T13:34:54.896Z,0.80
2023-02-02T13:39:03.746Z,0.98
2023-02-02T13:43:20.114Z,0.80
2023-02-02T13:47:29.909Z,0.80
2023-02-02T13:52:12.682Z,0.80
2023-02-02T13:56:30.991Z,0.80
2023-02-02T14:00:38.496Z,0.88
2023-02-02T14:04:41.801Z,0.52
2023-02-02T14:08:48.987Z,0.57
2023-02-02T14:12:54.785Z,0.80
2023-02-02T14:16:57.874Z,0.52
2023-02-02T14:21:01.368Z,0.65
2023-02-02T14:25:04.376Z,0.68
2023-02-02T14:29:59.192Z,0.60
2023-02-02T14:34:28.123Z,0.60
2023-02-02T14:39:09.984Z,0.80
2023-02-02T14:43:43.179Z,0.60
2023-02-02T14:47:54.103Z,1.00
2023-02-02T14:52:03.353Z,0.73
2023-02-02T14:56:10.295Z,0.75
2023-02-02T15:00:23.511Z,0.95
2023-02-02T15:04:30.525Z,0.85
2023-02-02T15:08:33.506Z,0.60
2023-02-02T15:12:40.152Z,0.70
2023-02-02T15:16:44.442Z,0.60
2023-02-02T15:20:51.436Z,1.20
2023-02-02T15:24:55.895Z,0.98
2023-02-02T15:29:02.121Z,0.90
2023-02-02T15:33:13.912Z,0.65
2023-02-02T15:37:23.692Z,0.70
2023-02-02T15:41:32.759Z,0.65
2023-02-02T15:45:43.840Z,0.80
2023-02-02T15:49:47.614Z,1.10
2023-02-02T15:53:53.470Z,1.00
2023-02-02T15:57:56.438Z,0.98
2023-02-02T16:02:15.772Z,1.45
2023-02-02T16:06:20.018Z,0.82
2023-02-02T16:10:25.179Z,1.60
2023-02-02T16:14:28.729Z,0.70
2023-02-02T16:18:32.381Z,0.98
2023-02-02T16:22:37.771Z,0.70
2023-02-02T16:26:43.316Z,0.77
2023-02-02T16:30:46.864Z,0.60
2023-02-02T16:45:48.823Z,0.75
2023-02-02T16:49:52.137Z,0.75
2023-02-02T16:54:01.459Z,0.82
2023-02-02T16:58:05.386Z,1.02
2023-02-02T17:02:22.654Z,0.88
2023-02-02T17:06:42.050Z,0.77
2023-02-02T17:11:06.377Z,1.20
2023-02-02T17:15:32.081Z,1.15
2023-02-02T17:19:38.002Z,1.50
2023-02-02T17:23:41.933Z,1.10
2023-02-02T17:27:46.199Z,0.98
2023-02-02T17:31:49.517Z,1.27
2023-02-02T17:35:56.326Z,1.20
2023-02-02T17:39:59.725Z,0.93
2023-02-02T17:44:04.864Z,1.00
2023-02-02T17:48:08.578Z,1.45
2023-02-02T17:52:14.759Z,1.63
2023-02-02T17:56:18.225Z,1.48
2023-02-02T18:00:24.100Z,0.90
2023-02-02T18:04:27.960Z,1.38
2023-02-02T18:08:33.439Z,1.10
2023-02-02T18:12:36.737Z,0.90
2023-02-02T18:16:39.896Z,1.20
2023-02-02T18:20:43.984Z,0.98
2023-02-02T18:24:48.828Z,1.08
2023-02-02T18:28:53.645Z,1.90
2023-02-02T18:32:57.254Z,1.25
2023-02-02T18:37:00.557Z,1.52
2023-02-02T18:41:05.890Z,1.73
2023-02-02T18:45:10.367Z,1.38
2023-02-02T18:49:13.689Z,1.67
2023-02-02T18:53:18.090Z,1.40
2023-02-02T18:57:23.102Z,1.75
2023-02-02T19:01:26.865Z,1.70
2023-02-02T19:05:47.791Z,1.77
2023-02-02T19:13:55.384Z,1.75
2023-02-02T19:17:58.375Z,1.80
2023-02-02T19:22:04.951Z,1.42
2023-02-02T19:26:20.527Z,1.10
2023-02-02T19:30:25.578Z,1.10
2023-02-02T19:34:28.915Z,1.25
2023-02-02T19:38:32.036Z,1.33
2023-02-02T19:42:36.211Z,1.10
2023-02-02T19:46:45.072Z,1.00
2023-02-02T19:50:48.536Z,1.17
2023-02-02T19:54:52.145Z,1.20
2023-02-02T19:58:55.396Z,1.77
2023-02-02T20:03:02.269Z,1.63
2023-02-02T20:07:13.542Z,1.67
2023-02-02T20:11:32.689Z,1.40
2023-02-02T20:15:37.918Z,1.50
2023-02-02T20:19:45.621Z,1.20
2023-02-02T20:23:48.892Z,1.88
2023-02-02T20:27:52.530Z,1.70
2023-02-02T20:31:57.200Z,1.48
2023-02-02T20:36:03.503Z,1.02
2023-02-02T20:40:22.789Z,1.30
2023-02-02T20:44:26.956Z,1.65
2023-02-02T20:48:30.667Z,1.25
2023-02-02T20:52:34.962Z,1.45
2023-02-02T20:56:38.684Z,1.30
2023-02-02T21:00:42.002Z,1.75
2023-02-02T21:04:47.335Z,1.58
2023-02-02T21:08:53.465Z,1.40
2023-02-02T21:12:56.753Z,1.60
2023-02-02T21:17:13.705Z,1.30
2023-02-02T21:21:19.390Z,1.45
2023-02-02T21:25:24.507Z,0.63
2023-02-02T21:29:28.723Z,1.05
2023-02-02T21:33:31.860Z,1.13
2023-02-02T21:37:36.644Z,0.93
2023-02-02T21:41:41.471Z,1.45
2023-02-02T21:45:46.306Z,1.48
2023-02-02T21:49:49.618Z,1.35
2023-02-02T21:53:53.118Z,1.60
2023-02-02T21:58:00.070Z,1.92
2023-02-02T22:02:28.647Z,1.27
2023-02-02T22:06:36.198Z,1.23
2023-02-02T22:10:40.945Z,1.25
2023-02-02T22:14:47.102Z,1.10
2023-02-02T22:18:50.028Z,1.02
2023-02-02T22:22:53.721Z,1.42
2023-02-02T22:26:56.830Z,1.33
2023-02-02T22:31:01.425Z,1.10
2023-02-02T22:35:04.941Z,1.40
2023-02-02T22:39:08.157Z,1.40
2023-02-02T22:43:13.624Z,1.33
2023-02-02T22:47:17.864Z,1.52
2023-02-02T22:51:21.356Z,1.63
2023-02-02T22:55:24.276Z,1.42
2023-02-02T22:59:27.642Z,1.08
2023-02-02T23:03:31.865Z,1.25
2023-02-02T23:07:35.480Z,1.27
2023-02-02T23:11:38.491Z,1.80
2023-02-02T23:15:41.420Z,1.40
2023-02-02T23:19:45.855Z,1.70
2023-02-02T23:23:49.482Z,1.20
2023-02-02T23:27:52.992Z,1.55
2023-02-02T23:31:56.177Z,1.17
2023-02-02T23:36:00.809Z,1.20
2023-02-02T23:40:07.604Z,0.82
2023-02-02T23:44:10.761Z,1.05
2023-02-02T23:48:14.324Z,1.20
2023-02-02T23:52:20.312Z,1.38
2023-02-02T23:56:23.808Z,1.15
